sensor_id;sensor_type;location;lat;lon;timestamp;temperature;humidity
43607;DHT22;29197;44.788;10.366;2023-01-19T01:56:52;6.70;99.90
43607;DHT22;29197;44.788;10.366;2023-01-19T01:59:44;6.70;99.90
43607;DHT22;29197;44.788;10.366;2023-01-19T02:02:35;6.70;99.90
43607;DHT22;29197;44.788;10.366;2023-01-19T02:05:39;6.70;99.90
43607;DHT22;29197;44.788;10.366;2023-01-19T02:08:34;6.50;99.90
43607;DHT22;29197;44.788;10.366;2023-01-19T02:11:42;6.50;99.90
43607;DHT22;29197;44.788;10.366;2023-01-19T02:14:48;6.00;99.90
43607;DHT22;29197;44.788;10.366;2023-01-19T02:17:36;6.10;99.90
43607;DHT22;29197;44.788;10.366;2023-01-19T02:20:27;6.20;99.90
43607;DHT22;29197;44.788;10.366;2023-01-19T02:26:28;6.20;99.90
43607;DHT22;29197;44.788;10.366;2023-01-19T02:29:20;6.20;99.90
43607;DHT22;29197;44.788;10.366;2023-01-19T02:32:10;6.30;99.90
43607;DHT22;29197;44.788;10.366;2023-01-19T02:34:59;6.30;99.90
43607;DHT22;29197;44.788;10.366;2023-01-19T02:37:48;6.40;99.90
43607;DHT22;29197;44.788;10.366;2023-01-19T02:40:41;6.30;99.90
43607;DHT22;29197;44.788;10.366;2023-01-19T02:43:31;6.30;99.90
43607;DHT22;29197;44.788;10.366;2023-01-19T02:46:20;6.40;99.90
43607;DHT22;29197;44.788;10.366;2023-01-19T02:49:09;6.40;99.90
43607;DHT22;29197;44.788;10.366;2023-01-19T02:51:58;6.50;99.90
43607;DHT22;29197;44.788;10.366;2023-01-19T02:54:58;6.60;99.90
43607;DHT22;29197;44.788;10.366;2023-01-19T02:57:55;6.60;99.90
43607;DHT22;29197;44.788;10.366;2023-01-19T03:00:52;6.60;99.90
43607;DHT22;29197;44.788;10.366;2023-01-19T03:03:47;6.60;99.90
43607;DHT22;29197;44.788;10.366;2023-01-19T03:06:42;6.50;99.90
43607;DHT22;29197;44.788;10.366;2023-01-19T03:09:34;6.50;99.90
43607;DHT22;29197;44.788;10.366;2023-01-19T03:12:32;6.40;99.90
43607;DHT22;29197;44.788;10.366;2023-01-19T03:15:25;6.10;99.90
43607;DHT22;29197;44.788;10.366;2023-01-19T03:18:20;6.00;99.90
43607;DHT22;29197;44.788;10.366;2023-01-19T03:21:12;6.20;99.90
43607;DHT22;29197;44.788;10.366;2023-01-19T03:24:04;6.10;99.90
43607;DHT22;29197;44.788;10.366;2023-01-19T03:26:57;6.20;99.90
43607;DHT22;29197;44.788;10.366;2023-01-19T03:29:50;6.20;99.90
43607;DHT22;29197;44.788;10.366;2023-01-19T03:32:43;6.30;99.90
43607;DHT22;29197;44.788;10.366;2023-01-19T03:35:39;6.10;99.90
43607;DHT22;29197;44.788;10.366;2023-01-19T03:38:31;6.10;99.90
43607;DHT22;29197;44.788;10.366;2023-01-19T03:41:23;6.00;99.90
43607;DHT22;29197;44.788;10.366;2023-01-19T03:44:13;6.00;99.90
43607;DHT22;29197;44.788;10.366;2023-01-19T03:47:02;6.00;99.90
43607;DHT22;29197;44.788;10.366;2023-01-19T03:49:52;6.00;99.90
43607;DHT22;29197;44.788;10.366;2023-01-19T03:52:42;5.90;99.90
43607;DHT22;29197;44.788;10.366;2023-01-19T03:55:31;5.80;99.90
43607;DHT22;29197;44.788;10.366;2023-01-19T03:58:20;5.70;99.90
43607;DHT22;29197;44.788;10.366;2023-01-19T04:01:09;5.80;99.90
43607;DHT22;29197;44.788;10.366;2023-01-19T04:03:57;5.90;99.90
43607;DHT22;29197;44.788;10.366;2023-01-19T04:06:46;6.00;99.90
43607;DHT22;29197;44.788;10.366;2023-01-19T04:09:36;6.00;99.90
43607;DHT22;29197;44.788;10.366;2023-01-19T04:12:24;6.10;99.90
43607;DHT22;29197;44.788;10.366;2023-01-19T04:15:13;6.20;99.90
43607;DHT22;29197;44.788;10.366;2023-01-19T04:18:02;6.20;99.90
43607;DHT22;29197;44.788;10.366;2023-01-19T04:20:51;6.20;99.90
43607;DHT22;29197;44.788;10.366;2023-01-19T04:23:40;6.10;99.90
43607;DHT22;29197;44.788;10.366;2023-01-19T04:26:31;6.00;99.90
43607;DHT22;29197;44.788;10.366;2023-01-19T04:29:20;5.70;99.90
43607;DHT22;29197;44.788;10.366;2023-01-19T04:32:08;5.70;99.90
43607;DHT22;29197;44.788;10.366;2023-01-19T04:34:57;5.40;99.90
43607;DHT22;29197;44.788;10.366;2023-01-19T04:37:46;5.00;99.90
43607;DHT22;29197;44.788;10.366;2023-01-19T04:40:34;4.70;99.90
43607;DHT22;29197;44.788;10.366;2023-01-19T04:43:24;4.80;99.90
43607;DHT22;29197;44.788;10.366;2023-01-19T04:46:13;5.00;99.90
43607;DHT22;29197;44.788;10.366;2023-01-19T04:49:01;5.10;99.90
43607;DHT22;29197;44.788;10.366;2023-01-19T04:51:51;5.20;99.90
43607;DHT22;29197;44.788;10.366;2023-01-19T04:54:40;5.10;99.90
43607;DHT22;29197;44.788;10.366;2023-01-19T04:57:29;5.00;99.90
43607;DHT22;29197;44.788;10.366;2023-01-19T05:00:19;4.80;99.90
43607;DHT22;29197;44.788;10.366;2023-01-19T05:03:08;4.40;99.90
43607;DHT22;29197;44.788;10.366;2023-01-19T05:05:57;4.40;99.90
43607;DHT22;29197;44.788;10.366;2023-01-19T05:08:45;4.40;99.90
43607;DHT22;29197;44.788;10.366;2023-01-19T05:11:34;4.40;99.90
43607;DHT22;29197;44.788;10.366;2023-01-19T05:14:22;4.30;99.90
43607;DHT22;29197;44.788;10.366;2023-01-19T05:17:12;4.30;99.90
43607;DHT22;29197;44.788;10.366;2023-01-19T05:20:01;4.40;99.90
43607;DHT22;29197;44.788;10.366;2023-01-19T05:22:51;4.20;99.90
43607;DHT22;29197;44.788;10.366;2023-01-19T05:25:41;4.30;99.90
43607;DHT22;29197;44.788;10.366;2023-01-19T05:28:31;4.40;99.90
43607;DHT22;29197;44.788;10.366;2023-01-19T05:31:20;4.50;99.90
43607;DHT22;29197;44.788;10.366;2023-01-19T05:34:11;4.60;99.90
43607;DHT22;29197;44.788;10.366;2023-01-19T05:37:00;4.80;99.90
43607;DHT22;29197;44.788;10.366;2023-01-19T05:39:49;4.60;99.90
43607;DHT22;29197;44.788;10.366;2023-01-19T05:42:37;4.40;99.90
43607;DHT22;29197;44.788;10.366;2023-01-19T05:45:26;4.40;99.90
43607;DHT22;29197;44.788;10.366;2023-01-19T05:48:15;4.60;99.90
43607;DHT22;29197;44.788;10.366;2023-01-19T05:51:05;4.40;99.90
43607;DHT22;29197;44.788;10.366;2023-01-19T05:53:53;4.20;99.90
43607;DHT22;29197;44.788;10.366;2023-01-19T05:56:42;4.40;99.90
43607;DHT22;29197;44.788;10.366;2023-01-19T05:59:30;4.50;99.90
43607;DHT22;29197;44.788;10.366;2023-01-19T06:02:19;4.60;99.90
43607;DHT22;29197;44.788;10.366;2023-01-19T06:05:14;4.80;99.90
43607;DHT22;29197;44.788;10.366;2023-01-19T06:08:05;4.90;99.90
43607;DHT22;29197;44.788;10.366;2023-01-19T06:10:53;5.00;99.90
43607;DHT22;29197;44.788;10.366;2023-01-19T06:13:42;5.00;99.90
43607;DHT22;29197;44.788;10.366;2023-01-19T06:16:31;5.00;99.90
43607;DHT22;29197;44.788;10.366;2023-01-19T06:19:19;4.80;99.90
43607;DHT22;29197;44.788;10.366;2023-01-19T06:22:08;4.70;99.90
43607;DHT22;29197;44.788;10.366;2023-01-19T06:24:58;4.80;99.90
43607;DHT22;29197;44.788;10.366;2023-01-19T06:27:47;4.60;99.90
43607;DHT22;29197;44.788;10.366;2023-01-19T06:30:35;4.30;99.90
43607;DHT22;29197;44.788;10.366;2023-01-19T06:33:25;4.40;99.90
43607;DHT22;29197;44.788;10.366;2023-01-19T06:36:14;4.50;99.90
43607;DHT22;29197;44.788;10.366;2023-01-19T06:39:03;4.70;99.90
43607;DHT22;29197;44.788;10.366;2023-01-19T06:41:53;4.50;99.90
43607;DHT22;29197;44.788;10.366;2023-01-19T06:44:41;4.30;99.90
43607;DHT22;29197;44.788;10.366;2023-01-19T06:47:33;4.10;99.90
43607;DHT22;29197;44.788;10.366;2023-01-19T06:50:22;3.80;99.90
43607;DHT22;29197;44.788;10.366;2023-01-19T06:55:59;4.20;99.90
43607;DHT22;29197;44.788;10.366;2023-01-19T06:58:51;4.60;99.90
43607;DHT22;29197;44.788;10.366;2023-01-19T07:01:41;4.70;99.90
43607;DHT22;29197;44.788;10.366;2023-01-19T07:04:30;4.90;99.90
43607;DHT22;29197;44.788;10.366;2023-01-19T07:07:18;5.00;99.90
43607;DHT22;29197;44.788;10.366;2023-01-19T07:10:08;5.00;99.90
43607;DHT22;29197;44.788;10.366;2023-01-19T07:12:57;5.00;99.90
43607;DHT22;29197;44.788;10.366;2023-01-19T07:15:48;5.10;99.90
43607;DHT22;29197;44.788;10.366;2023-01-19T07:18:38;5.20;99.90
43607;DHT22;29197;44.788;10.366;2023-01-19T07:21:26;5.30;99.90
43607;DHT22;29197;44.788;10.366;2023-01-19T07:24:15;5.40;99.90
43607;DHT22;29197;44.788;10.366;2023-01-19T07:27:04;5.40;99.90
43607;DHT22;29197;44.788;10.366;2023-01-19T07:29:52;5.40;99.90
43607;DHT22;29197;44.788;10.366;2023-01-19T07:32:42;5.30;99.90
43607;DHT22;29197;44.788;10.366;2023-01-19T07:35:31;5.30;99.90
43607;DHT22;29197;44.788;10.366;2023-01-19T07:38:20;5.40;99.90
43607;DHT22;29197;44.788;10.366;2023-01-19T07:41:09;5.60;99.90
43607;DHT22;29197;44.788;10.366;2023-01-19T07:43:58;4.80;99.90
43607;DHT22;29197;44.788;10.366;2023-01-19T07:49:38;4.90;99.90
43607;DHT22;29197;44.788;10.366;2023-01-19T07:52:27;5.10;99.90
43607;DHT22;29197;44.788;10.366;2023-01-19T07:55:16;5.10;99.90
43607;DHT22;29197;44.788;10.366;2023-01-19T07:58:04;5.20;99.90
43607;DHT22;29197;44.788;10.366;2023-01-19T08:00:53;5.20;99.90
43607;DHT22;29197;44.788;10.366;2023-01-19T08:03:42;5.20;99.90
43607;DHT22;29197;44.788;10.366;2023-01-19T08:06:35;5.30;99.90
43607;DHT22;29197;44.788;10.366;2023-01-19T08:09:24;5.30;99.90
43607;DHT22;29197;44.788;10.366;2023-01-19T08:12:12;5.40;99.90
43607;DHT22;29197;44.788;10.366;2023-01-19T08:15:01;5.30;99.90
43607;DHT22;29197;44.788;10.366;2023-01-19T08:17:56;5.20;99.90
43607;DHT22;29197;44.788;10.366;2023-01-19T08:20:45;5.20;99.90
43607;DHT22;29197;44.788;10.366;2023-01-19T08:23:35;5.30;99.90
43607;DHT22;29197;44.788;10.366;2023-01-19T08:26:27;5.50;99.90
43607;DHT22;29197;44.788;10.366;2023-01-19T08:29:16;5.50;99.90
43607;DHT22;29197;44.788;10.366;2023-01-19T08:32:05;5.50;99.90
43607;DHT22;29197;44.788;10.366;2023-01-19T08:34:53;5.50;99.90
43607;DHT22;29197;44.788;10.366;2023-01-19T08:37:42;5.40;99.90
43607;DHT22;29197;44.788;10.366;2023-01-19T08:40:34;5.30;99.90
43607;DHT22;29197;44.788;10.366;2023-01-19T08:43:23;5.30;99.90
43607;DHT22;29197;44.788;10.366;2023-01-19T08:46:12;5.30;99.90
43607;DHT22;29197;44.788;10.366;2023-01-19T08:49:03;5.20;99.90
43607;DHT22;29197;44.788;10.366;2023-01-19T08:51:52;5.10;99.90
43607;DHT22;29197;44.788;10.366;2023-01-19T08:54:40;5.00;99.90
43607;DHT22;29197;44.788;10.366;2023-01-19T08:57:30;5.10;99.90
43607;DHT22;29197;44.788;10.366;2023-01-19T09:00:20;5.10;99.90
43607;DHT22;29197;44.788;10.366;2023-01-19T09:03:11;5.70;99.90
43607;DHT22;29197;44.788;10.366;2023-01-19T09:06:00;5.10;99.90
43607;DHT22;29197;44.788;10.366;2023-01-19T09:08:48;5.20;99.90
43607;DHT22;29197;44.788;10.366;2023-01-19T09:11:37;5.30;99.90
43607;DHT22;29197;44.788;10.366;2023-01-19T09:14:27;5.20;99.90
43607;DHT22;29197;44.788;10.366;2023-01-19T09:17:15;5.20;99.90
43607;DHT22;29197;44.788;10.366;2023-01-19T09:20:05;5.20;99.90
43607;DHT22;29197;44.788;10.366;2023-01-19T09:22:54;5.30;99.90
43607;DHT22;29197;44.788;10.366;2023-01-19T09:25:44;5.40;99.90
43607;DHT22;29197;44.788;10.366;2023-01-19T09:28:33;5.50;99.90
43607;DHT22;29197;44.788;10.366;2023-01-19T09:31:23;5.50;99.90
43607;DHT22;29197;44.788;10.366;2023-01-19T09:34:12;5.60;99.90
43607;DHT22;29197;44.788;10.366;2023-01-19T09:37:00;5.50;99.90
43607;DHT22;29197;44.788;10.366;2023-01-19T09:39:49;5.50;99.90
43607;DHT22;29197;44.788;10.366;2023-01-19T09:42:41;5.60;99.90
43607;DHT22;29197;44.788;10.366;2023-01-19T09:45:35;5.40;99.90
43607;DHT22;29197;44.788;10.366;2023-01-19T09:48:35;5.20;99.90
43607;DHT22;29197;44.788;10.366;2023-01-19T09:51:28;5.20;99.90
43607;DHT22;29197;44.788;10.366;2023-01-19T09:54:20;5.40;99.90
43607;DHT22;29197;44.788;10.366;2023-01-19T09:57:10;5.40;99.90
43607;DHT22;29197;44.788;10.366;2023-01-19T09:59:59;5.50;99.90
43607;DHT22;29197;44.788;10.366;2023-01-19T10:02:52;5.40;99.90
43607;DHT22;29197;44.788;10.366;2023-01-19T10:05:47;5.20;99.90
43607;DHT22;29197;44.788;10.366;2023-01-19T10:08:41;5.20;99.90
43607;DHT22;29197;44.788;10.366;2023-01-19T10:11:38;5.30;99.90
43607;DHT22;29197;44.788;10.366;2023-01-19T10:14:42;5.40;99.90
43607;DHT22;29197;44.788;10.366;2023-01-19T10:17:42;5.40;99.90
43607;DHT22;29197;44.788;10.366;2023-01-19T10:20:37;5.40;99.90
43607;DHT22;29197;44.788;10.366;2023-01-19T10:23:34;5.40;99.90
43607;DHT22;29197;44.788;10.366;2023-01-19T10:26:26;5.40;99.90
43607;DHT22;29197;44.788;10.366;2023-01-19T10:29:22;5.40;99.90
43607;DHT22;29197;44.788;10.366;2023-01-19T10:32:14;5.40;99.90
43607;DHT22;29197;44.788;10.366;2023-01-19T10:35:13;4.40;99.90
43607;DHT22;29197;44.788;10.366;2023-01-19T10:38:11;5.30;99.90
43607;DHT22;29197;44.788;10.366;2023-01-19T10:41:05;5.20;99.90
43607;DHT22;29197;44.788;10.366;2023-01-19T10:43:59;5.10;99.90
43607;DHT22;29197;44.788;10.366;2023-01-19T10:46:49;5.10;99.90
43607;DHT22;29197;44.788;10.366;2023-01-19T10:49:40;5.00;99.90
43607;DHT22;29197;44.788;10.366;2023-01-19T10:52:32;5.00;99.90
43607;DHT22;29197;44.788;10.366;2023-01-19T10:55:26;5.20;99.90
43607;DHT22;29197;44.788;10.366;2023-01-19T10:58:28;5.20;99.90
43607;DHT22;29197;44.788;10.366;2023-01-19T11:01:19;5.30;99.90
43607;DHT22;29197;44.788;10.366;2023-01-19T11:04:21;5.10;99.90
43607;DHT22;29197;44.788;10.366;2023-01-19T11:07:15;5.20;99.90
43607;DHT22;29197;44.788;10.366;2023-01-19T11:10:19;5.20;99.90
43607;DHT22;29197;44.788;10.366;2023-01-19T11:13:10;5.30;99.90
43607;DHT22;29197;44.788;10.366;2023-01-19T11:16:04;5.30;99.90
43607;DHT22;29197;44.788;10.366;2023-01-19T11:18:55;5.30;99.90
43607;DHT22;29197;44.788;10.366;2023-01-19T11:21:44;5.10;99.90
43607;DHT22;29197;44.788;10.366;2023-01-19T11:24:32;5.00;99.90
43607;DHT22;29197;44.788;10.366;2023-01-19T11:27:23;5.10;99.90
43607;DHT22;29197;44.788;10.366;2023-01-19T11:33:23;5.00;99.90
43607;DHT22;29197;44.788;10.366;2023-01-19T11:36:16;5.00;99.90
43607;DHT22;29197;44.788;10.366;2023-01-19T11:39:20;5.10;99.90
43607;DHT22;29197;44.788;10.366;2023-01-19T11:42:11;5.10;99.90
43607;DHT22;29197;44.788;10.366;2023-01-19T11:45:04;5.00;99.90
43607;DHT22;29197;44.788;10.366;2023-01-19T11:47:53;5.10;99.90
43607;DHT22;29197;44.788;10.366;2023-01-19T11:50:45;5.10;99.90
43607;DHT22;29197;44.788;10.366;2023-01-19T11:53:36;5.10;99.90
43607;DHT22;29197;44.788;10.366;2023-01-19T11:56:26;5.00;99.90
43607;DHT22;29197;44.788;10.366;2023-01-19T11:59:16;4.80;99.90
43607;DHT22;29197;44.788;10.366;2023-01-19T12:02:16;4.50;99.90
43607;DHT22;29197;44.788;10.366;2023-01-19T12:05:11;4.30;99.90
43607;DHT22;29197;44.788;10.366;2023-01-19T12:08:04;4.40;99.90
43607;DHT22;29197;44.788;10.366;2023-01-19T12:10:56;4.60;99.90
43607;DHT22;29197;44.788;10.366;2023-01-19T12:13:46;4.70;99.90
43607;DHT22;29197;44.788;10.366;2023-01-19T12:16:37;4.70;99.90
43607;DHT22;29197;44.788;10.366;2023-01-19T12:19:32;4.60;99.90
43607;DHT22;29197;44.788;10.366;2023-01-19T12:22:23;4.60;99.90
43607;DHT22;29197;44.788;10.366;2023-01-19T12:25:21;4.70;99.90
43607;DHT22;29197;44.788;10.366;2023-01-19T12:28:13;4.70;99.90
43607;DHT22;29197;44.788;10.366;2023-01-19T12:31:02;4.70;99.90
43607;DHT22;29197;44.788;10.366;2023-01-19T12:33:51;4.90;99.90
43607;DHT22;29197;44.788;10.366;2023-01-19T12:36:39;5.00;99.90
43607;DHT22;29197;44.788;10.366;2023-01-19T12:39:28;5.10;99.90
43607;DHT22;29197;44.788;10.366;2023-01-19T12:42:19;5.20;99.90
43607;DHT22;29197;44.788;10.366;2023-01-19T12:45:13;5.10;99.90
43607;DHT22;29197;44.788;10.366;2023-01-19T12:48:03;5.10;99.90
43607;DHT22;29197;44.788;10.366;2023-01-19T12:50:54;5.00;99.90
43607;DHT22;29197;44.788;10.366;2023-01-19T12:53:50;5.00;99.90
43607;DHT22;29197;44.788;10.366;2023-01-19T12:56:39;5.00;99.90
43607;DHT22;29197;44.788;10.366;2023-01-19T13:02:49;4.70;99.90
43607;DHT22;29197;44.788;10.366;2023-01-19T13:05:56;4.60;99.90
43607;DHT22;29197;44.788;10.366;2023-01-19T13:08:56;4.70;99.90
43607;DHT22;29197;44.788;10.366;2023-01-19T13:12:09;4.70;99.90
43607;DHT22;29197;44.788;10.366;2023-01-19T13:15:33;4.90;99.90
43607;DHT22;29197;44.788;10.366;2023-01-19T13:18:23;5.00;99.90
43607;DHT22;29197;44.788;10.366;2023-01-19T13:21:13;4.80;99.90
43607;DHT22;29197;44.788;10.366;2023-01-19T13:24:14;4.60;99.90
43607;DHT22;29197;44.788;10.366;2023-01-19T13:27:03;4.80;99.90
43607;DHT22;29197;44.788;10.366;2023-01-19T13:29:52;4.50;99.90
43607;DHT22;29197;44.788;10.366;2023-01-19T13:32:42;4.50;99.90
43607;DHT22;29197;44.788;10.366;2023-01-19T13:38:22;4.60;99.90
43607;DHT22;29197;44.788;10.366;2023-01-19T13:41:14;4.70;99.90
43607;DHT22;29197;44.788;10.366;2023-01-19T13:44:07;4.80;99.90
43607;DHT22;29197;44.788;10.366;2023-01-19T13:46:57;4.70;99.90
43607;DHT22;29197;44.788;10.366;2023-01-19T13:49:50;4.80;99.90
43607;DHT22;29197;44.788;10.366;2023-01-19T13:52:42;4.80;99.90
43607;DHT22;29197;44.788;10.366;2023-01-19T13:55:31;4.60;99.90
43607;DHT22;29197;44.788;10.366;2023-01-19T13:58:20;4.50;99.90
43607;DHT22;29197;44.788;10.366;2023-01-19T14:01:20;4.50;99.90
43607;DHT22;29197;44.788;10.366;2023-01-19T14:04:26;4.40;99.90
43607;DHT22;29197;44.788;10.366;2023-01-19T14:07:19;4.40;99.90
43607;DHT22;29197;44.788;10.366;2023-01-19T14:10:14;4.40;99.90
43607;DHT22;29197;44.788;10.366;2023-01-19T14:13:04;4.50;99.90
43607;DHT22;29197;44.788;10.366;2023-01-19T14:15:55;4.60;99.90
43607;DHT22;29197;44.788;10.366;2023-01-19T14:18:44;4.50;99.90
43607;DHT22;29197;44.788;10.366;2023-01-19T14:21:37;4.60;99.90
43607;DHT22;29197;44.788;10.366;2023-01-19T14:24:28;4.70;99.90
43607;DHT22;29197;44.788;10.366;2023-01-19T14:27:21;4.80;99.90
43607;DHT22;29197;44.788;10.366;2023-01-19T14:30:19;4.80;99.90
43607;DHT22;29197;44.788;10.366;2023-01-19T14:33:31;4.90;99.90
43607;DHT22;29197;44.788;10.366;2023-01-19T14:36:27;4.80;99.90
43607;DHT22;29197;44.788;10.366;2023-01-19T14:39:21;4.80;99.90
43607;DHT22;29197;44.788;10.366;2023-01-19T14:42:15;4.80;99.90
43607;DHT22;29197;44.788;10.366;2023-01-19T14:45:12;4.60;99.90
43607;DHT22;29197;44.788;10.366;2023-01-19T14:48:05;4.40;99.90
43607;DHT22;29197;44.788;10.366;2023-01-19T14:51:00;4.50;99.90
43607;DHT22;29197;44.788;10.366;2023-01-19T14:53:52;4.50;99.90
43607;DHT22;29197;44.788;10.366;2023-01-19T14:56:45;4.60;99.90
43607;DHT22;29197;44.788;10.366;2023-01-19T15:02:24;4.70;99.90
43607;DHT22;29197;44.788;10.366;2023-01-19T15:05:13;4.70;99.90
43607;DHT22;29197;44.788;10.366;2023-01-19T15:08:02;4.60;99.90
43607;DHT22;29197;44.788;10.366;2023-01-19T15:10:51;4.70;99.90
43607;DHT22;29197;44.788;10.366;2023-01-19T15:13:40;4.70;99.90
43607;DHT22;29197;44.788;10.366;2023-01-19T15:16:33;4.20;99.90
43607;DHT22;29197;44.788;10.366;2023-01-19T15:19:22;4.20;99.90
43607;DHT22;29197;44.788;10.366;2023-01-19T15:22:11;4.30;99.90
43607;DHT22;29197;44.788;10.366;2023-01-19T15:25:01;4.40;99.90
43607;DHT22;29197;44.788;10.366;2023-01-19T15:27:49;4.10;99.90
43607;DHT22;29197;44.788;10.366;2023-01-19T15:30:38;4.10;99.90
43607;DHT22;29197;44.788;10.366;2023-01-19T15:33:29;4.40;99.90
43607;DHT22;29197;44.788;10.366;2023-01-19T15:36:19;4.40;99.90
43607;DHT22;29197;44.788;10.366;2023-01-19T15:39:08;4.60;99.90
43607;DHT22;29197;44.788;10.366;2023-01-19T15:41:57;4.60;99.90
43607;DHT22;29197;44.788;10.366;2023-01-19T15:44:46;4.70;99.90
43607;DHT22;29197;44.788;10.366;2023-01-19T15:47:34;4.70;99.90
43607;DHT22;29197;44.788;10.366;2023-01-19T15:50:25;4.60;99.90
43607;DHT22;29197;44.788;10.366;2023-01-19T15:53:15;4.60;99.90
43607;DHT22;29197;44.788;10.366;2023-01-19T15:56:05;4.60;99.90
43607;DHT22;29197;44.788;10.366;2023-01-19T15:58:54;4.60;99.90
43607;DHT22;29197;44.788;10.366;2023-01-19T16:01:43;4.60;99.90
43607;DHT22;29197;44.788;10.366;2023-01-19T16:04:31;4.40;99.90
43607;DHT22;29197;44.788;10.366;2023-01-19T16:07:21;4.40;99.90
43607;DHT22;29197;44.788;10.366;2023-01-19T16:10:10;4.40;99.90
43607;DHT22;29197;44.788;10.366;2023-01-19T16:12:59;4.50;99.90
43607;DHT22;29197;44.788;10.366;2023-01-19T16:15:48;4.60;99.90
43607;DHT22;29197;44.788;10.366;2023-01-19T16:18:36;4.60;99.90
43607;DHT22;29197;44.788;10.366;2023-01-19T16:21:25;4.60;99.90
43607;DHT22;29197;44.788;10.366;2023-01-19T16:24:15;4.50;99.90
43607;DHT22;29197;44.788;10.366;2023-01-19T16:27:04;4.40;99.90
43607;DHT22;29197;44.788;10.366;2023-01-19T16:29:54;4.40;99.90
43607;DHT22;29197;44.788;10.366;2023-01-19T16:35:31;4.10;99.90
43607;DHT22;29197;44.788;10.366;2023-01-19T16:38:21;4.10;99.90
43607;DHT22;29197;44.788;10.366;2023-01-19T16:41:11;4.10;99.90
43607;DHT22;29197;44.788;10.366;2023-01-19T16:44:00;4.20;99.90
43607;DHT22;29197;44.788;10.366;2023-01-19T16:46:48;4.30;99.90
43607;DHT22;29197;44.788;10.366;2023-01-19T16:49:37;4.20;99.90
43607;DHT22;29197;44.788;10.366;2023-01-19T16:52:26;4.30;99.90
43607;DHT22;29197;44.788;10.366;2023-01-19T16:55:14;4.30;99.90
43607;DHT22;29197;44.788;10.366;2023-01-19T16:58:04;4.40;99.90
43607;DHT22;29197;44.788;10.366;2023-01-19T17:00:53;4.50;99.90
43607;DHT22;29197;44.788;10.366;2023-01-19T17:06:31;4.50;99.90
43607;DHT22;29197;44.788;10.366;2023-01-19T17:09:20;4.60;99.90
43607;DHT22;29197;44.788;10.366;2023-01-19T17:12:08;4.60;99.90
43607;DHT22;29197;44.788;10.366;2023-01-19T17:15:00;4.60;99.90
43607;DHT22;29197;44.788;10.366;2023-01-19T17:17:48;4.70;99.90
43607;DHT22;29197;44.788;10.366;2023-01-19T17:20:37;4.80;99.90
43607;DHT22;29197;44.788;10.366;2023-01-19T17:23:25;4.70;99.90
43607;DHT22;29197;44.788;10.366;2023-01-19T17:26:14;4.80;99.90
43607;DHT22;29197;44.788;10.366;2023-01-19T17:29:05;4.80;99.90
43607;DHT22;29197;44.788;10.366;2023-01-19T17:31:55;4.80;99.90
43607;DHT22;29197;44.788;10.366;2023-01-19T17:34:47;4.80;99.90
43607;DHT22;29197;44.788;10.366;2023-01-19T17:37:35;4.80;99.90
43607;DHT22;29197;44.788;10.366;2023-01-19T17:40:24;4.90;99.90
43607;DHT22;29197;44.788;10.366;2023-01-19T17:43:12;4.90;99.90
43607;DHT22;29197;44.788;10.366;2023-01-19T17:46:01;4.90;99.90
43607;DHT22;29197;44.788;10.366;2023-01-19T17:48:52;4.90;99.90
43607;DHT22;29197;44.788;10.366;2023-01-19T17:51:40;4.90;99.90
43607;DHT22;29197;44.788;10.366;2023-01-19T17:54:29;4.90;99.90
43607;DHT22;29197;44.788;10.366;2023-01-19T17:57:17;4.90;99.90
43607;DHT22;29197;44.788;10.366;2023-01-19T18:00:07;4.90;99.90
43607;DHT22;29197;44.788;10.366;2023-01-19T18:02:56;5.00;99.90
43607;DHT22;29197;44.788;10.366;2023-01-19T18:05:53;5.00;99.90
43607;DHT22;29197;44.788;10.366;2023-01-19T18:08:43;4.60;99.90
43607;DHT22;29197;44.788;10.366;2023-01-19T18:11:32;4.70;99.90
43607;DHT22;29197;44.788;10.366;2023-01-19T18:17:10;4.50;99.90
43607;DHT22;29197;44.788;10.366;2023-01-19T18:19:58;4.50;99.90
43607;DHT22;29197;44.788;10.366;2023-01-19T18:22:48;4.60;99.90
43607;DHT22;29197;44.788;10.366;2023-01-19T18:25:37;4.70;99.90
43607;DHT22;29197;44.788;10.366;2023-01-19T18:28:26;4.70;99.90
43607;DHT22;29197;44.788;10.366;2023-01-19T18:31:17;4.70;99.90
43607;DHT22;29197;44.788;10.366;2023-01-19T18:34:05;4.80;99.90
43607;DHT22;29197;44.788;10.366;2023-01-19T18:36:54;4.60;99.90
43607;DHT22;29197;44.788;10.366;2023-01-19T18:39:44;4.40;99.90
43607;DHT22;29197;44.788;10.366;2023-01-19T18:42:33;4.50;99.90
43607;DHT22;29197;44.788;10.366;2023-01-19T18:45:21;4.60;99.90
43607;DHT22;29197;44.788;10.366;2023-01-19T18:48:10;4.50;99.90
43607;DHT22;29197;44.788;10.366;2023-01-19T18:50:58;4.50;99.90
43607;DHT22;29197;44.788;10.366;2023-01-19T18:53:49;4.60;99.90
43607;DHT22;29197;44.788;10.366;2023-01-19T18:56:39;4.70;99.90
43607;DHT22;29197;44.788;10.366;2023-01-19T18:59:28;4.70;99.90
43607;DHT22;29197;44.788;10.366;2023-01-19T19:05:06;4.20;99.90
43607;DHT22;29197;44.788;10.366;2023-01-19T19:07:55;4.00;99.90
43607;DHT22;29197;44.788;10.366;2023-01-19T19:10:43;4.20;99.90
43607;DHT22;29197;44.788;10.366;2023-01-19T19:13:33;4.30;99.90
43607;DHT22;29197;44.788;10.366;2023-01-19T19:19:11;4.00;99.90
43607;DHT22;29197;44.788;10.366;2023-01-19T19:22:01;3.70;99.90
43607;DHT22;29197;44.788;10.366;2023-01-19T19:24:50;3.60;99.90
43607;DHT22;29197;44.788;10.366;2023-01-19T19:30:32;3.50;99.90
43607;DHT22;29197;44.788;10.366;2023-01-19T19:33:24;3.50;99.90
43607;DHT22;29197;44.788;10.366;2023-01-19T19:36:13;3.60;99.90
43607;DHT22;29197;44.788;10.366;2023-01-19T19:39:02;3.50;99.90
43607;DHT22;29197;44.788;10.366;2023-01-19T19:41:50;3.30;99.90
43607;DHT22;29197;44.788;10.366;2023-01-19T19:44:39;3.20;99.90
43607;DHT22;29197;44.788;10.366;2023-01-19T19:47:29;3.30;99.90
43607;DHT22;29197;44.788;10.366;2023-01-19T19:50:17;3.60;99.90
43607;DHT22;29197;44.788;10.366;2023-01-19T19:53:06;3.70;99.90
43607;DHT22;29197;44.788;10.366;2023-01-19T19:55:56;4.00;99.90
43607;DHT22;29197;44.788;10.366;2023-01-19T19:58:44;4.00;99.90
43607;DHT22;29197;44.788;10.366;2023-01-19T20:01:33;4.00;99.90
43607;DHT22;29197;44.788;10.366;2023-01-19T20:04:23;4.20;99.90
43607;DHT22;29197;44.788;10.366;2023-01-19T20:07:12;4.10;99.90
43607;DHT22;29197;44.788;10.366;2023-01-19T20:10:04;4.20;99.90
43607;DHT22;29197;44.788;10.366;2023-01-19T20:12:53;4.30;99.90
43607;DHT22;29197;44.788;10.366;2023-01-19T20:15:41;4.20;99.90
43607;DHT22;29197;44.788;10.366;2023-01-19T20:18:31;4.20;99.90
43607;DHT22;29197;44.788;10.366;2023-01-19T20:21:23;4.20;99.90
43607;DHT22;29197;44.788;10.366;2023-01-19T20:24:13;4.20;99.90
43607;DHT22;29197;44.788;10.366;2023-01-19T20:27:02;4.20;99.90
43607;DHT22;29197;44.788;10.366;2023-01-19T20:29:51;4.30;99.90
43607;DHT22;29197;44.788;10.366;2023-01-19T20:35:34;3.90;99.90